Time;durP1;ratioP1;P1;durP2;ratioP2;P2;SDS_P1;SDS_P2;PMS_P1;PMS_P2;Temp;Humidity;BMP_temperature;BMP_pressure;BME280_temperature;BME280_humidity;BME280_pressure;Samples;Min_cycle;Max_cycle;Signal;HPM_P1;HPM_P2
2022/10/25 00:02:59;;;;;;;;;;;;;;;19.11;72.26;100539.77;2324071;76;50344;-75
2022/10/25 00:06:01;;;;;;;;;;;;;;;19.11;72.19;100537.09;2315869;76;50722;-75
2022/10/25 00:09:03;;;;;;;;;;;;;;;19.09;72.25;100537.81;2299491;76;50895;-76
2022/10/25 00:12:04;;;;;;;;;;;;;;;19.07;72.34;100539.84;2323681;76;50734;-74
2022/10/25 00:15:06;;;;;;;;;;;;;;;19.07;72.33;100537.16;2299135;76;50404;-75
2022/10/25 00:18:07;;;;;;;;;;;;;;;19.08;72.33;100536.95;2323752;76;50366;-74
2022/10/25 00:21:09;;;;;;;;;;;;;;;19.06;72.33;100539.50;2274138;76;49413;-74
2022/10/25 00:24:11;;;;;;;;;;;;;;;19.08;72.32;100538.81;2291065;76;50065;-74
2022/10/25 00:27:13;;;;;;;;;;;;;;;19.07;72.35;100538.50;2321529;76;50718;-74
2022/10/25 00:30:14;;;;;;;;;;;;;;;19.05;72.44;100536.52;2315927;77;50272;-75
2022/10/25 00:33:16;;;;;;;;;;;;;;;19.07;72.34;100536.65;2291655;77;51298;-74
2022/10/25 00:36:18;;;;;;;;;;;;;;;19.07;72.32;100538.50;2311080;76;50734;-74
2022/10/25 00:39:20;;;;;;;;;;;;;;;19.04;72.42;100537.03;2324738;76;51531;-75
2022/10/25 00:42:23;;;;;;;;;;;;;;;19.05;72.41;100548.06;2298197;77;50743;-75
2022/10/25 00:45:25;;;;;;;;;;;;;;;19.05;72.41;100542.70;2272190;77;51191;-74
2022/10/25 00:48:27;;;;;;;;;;;;;;;19.05;72.32;100537.86;2285780;78;50141;-74
2022/10/25 00:51:30;;;;;;;;;;;;;;;19.07;72.36;100539.84;2287210;78;50732;-74
2022/10/25 00:54:33;;;;;;;;;;;;;;;19.07;72.22;100543.35;2287219;77;50725;-75
2022/10/25 00:57:36;;;;;;;;;;;;;;;19.04;72.27;100539.72;2273551;78;50152;-75
2022/10/25 01:00:38;;;;;;;;;;;;;;;19.04;72.37;100548.27;2284339;77;52625;-76
2022/10/25 01:03:39;;;;;;;;;;;;;;;19.03;72.37;100544.73;2288846;76;50359;-75
2022/10/25 01:06:42;;;;;;;;;;;;;;;19.02;72.37;100548.97;2324130;76;50278;-76
2022/10/25 01:09:44;;;;;;;;;;;;;;;19.02;72.37;100548.97;2324052;76;51509;-76
2022/10/25 01:12:45;;;;;;;;;;;;;;;19.02;72.39;100546.28;2324136;76;51480;-76
2022/10/25 01:15:51;;;;;;;;;;;;;;;19.00;72.36;100545.64;2323993;76;50754;-76
2022/10/25 01:19:04;;;;;;;;;;;;;;;19.02;72.38;100542.27;2324071;76;51503;-75
2022/10/25 01:22:07;;;;;;;;;;;;;;;19.02;72.30;100544.42;2311611;76;51017;-75
2022/10/25 01:25:13;;;;;;;;;;;;;;;19.03;72.33;100534.53;2323789;76;51586;-75
2022/10/25 01:28:35;;;;;;;;;;;;;;;19.03;72.25;100529.16;2323884;76;50382;-76
2022/10/25 01:31:41;;;;;;;;;;;;;;;19.03;72.23;100531.33;2323396;75;51689;-75
2022/10/25 01:34:53;;;;;;;;;;;;;;;19.01;72.31;100537.42;2296208;76;51038;-75
2022/10/25 01:38:02;;;;;;;;;;;;;;;19.01;72.30;100544.12;2315141;76;50170;-75
2022/10/25 01:41:17;;;;;;;;;;;;;;;19.01;72.38;100541.92;2302185;76;51513;-75
2022/10/25 01:44:20;;;;;;;;;;;;;;;19.01;72.28;100537.90;2302063;77;50804;-74
2022/10/25 01:47:26;;;;;;;;;;;;;;;19.01;72.22;100534.73;2275044;77;51995;-75
2022/10/25 01:50:28;;;;;;;;;;;;;;;19.01;72.29;100533.88;2290039;76;50402;-75
2022/10/25 01:53:29;;;;;;;;;;;;;;;19.03;72.23;100539.89;2301906;77;50565;-75
2022/10/25 01:56:32;;;;;;;;;;;;;;;19.04;72.21;100540.23;2302097;77;50454;-75
2022/10/25 01:59:40;;;;;;;;;;;;;;;19.04;72.21;100529.50;2275204;77;51045;-75
2022/10/25 02:03:00;;;;;;;;;;;;;;;19.01;72.28;100524.01;2277768;77;50899;-75
2022/10/25 02:06:09;;;;;;;;;;;;;;;19.02;72.27;100534.22;2279293;76;51000;-75
2022/10/25 02:09:18;;;;;;;;;;;;;;;18.99;72.41;100534.09;2334756;74;51409;-75
2022/10/25 02:12:21;;;;;;;;;;;;;;;18.99;72.28;100535.94;2334834;76;52617;-75
2022/10/25 02:15:27;;;;;;;;;;;;;;;18.98;72.38;100539.63;2312533;76;50497;-76
2022/10/25 02:18:30;;;;;;;;;;;;;;;19.01;72.23;100533.39;2306528;76;50366;-76
2022/10/25 02:21:32;;;;;;;;;;;;;;;19.01;72.34;100540.09;2306534;77;51494;-75
2022/10/25 02:24:34;;;;;;;;;;;;;;;19.01;72.30;100532.53;2306262;77;50252;-75
2022/10/25 02:27:36;;;;;;;;;;;;;;;19.00;72.27;100539.75;2311604;76;50709;-75
2022/10/25 02:30:38;;;;;;;;;;;;;;;19.00;72.30;100540.27;2323283;75;51626;-75
2022/10/25 02:33:39;;;;;;;;;;;;;;;19.00;72.18;100548.31;2324019;76;51506;-75
2022/10/25 02:36:41;;;;;;;;;;;;;;;19.00;72.24;100545.64;2324177;76;51485;-75
2022/10/25 02:39:42;;;;;;;;;;;;;;;19.00;72.15;100545.64;2324070;76;50344;-74
2022/10/25 02:42:44;;;;;;;;;;;;;;;19.01;72.20;100543.27;2324151;76;50388;-74
2022/10/25 02:45:45;;;;;;;;;;;;;;;19.02;72.13;100540.92;2350743;74;50728;-74
2022/10/25 02:48:47;;;;;;;;;;;;;;;19.03;72.07;100544.73;2311669;76;50972;-74
2022/10/25 02:51:49;;;;;;;;;;;;;;;19.02;72.06;100543.09;2350776;74;51467;-74
2022/10/25 02:54:50;;;;;;;;;;;;;;;19.02;72.10;100540.92;2323959;76;51480;-74
2022/10/25 02:57:52;;;;;;;;;;;;;;;19.01;72.20;100548.14;2350763;75;51401;-74
2022/10/25 03:00:53;;;;;;;;;;;;;;;19.00;72.17;100549.66;2322448;75;51286;-74
2022/10/25 03:03:55;;;;;;;;;;;;;;;19.03;72.07;100553.30;2296335;76;50458;-75
2022/10/25 03:06:56;;;;;;;;;;;;;;;19.00;72.09;100550.48;2298003;76;50330;-75
2022/10/25 03:09:58;;;;;;;;;;;;;;;19.00;72.10;100560.38;2273979;76;50082;-75
2022/10/25 03:12:59;;;;;;;;;;;;;;;19.01;72.05;100568.73;2323799;76;51510;-74
2022/10/25 03:16:01;;;;;;;;;;;;;;;19.00;72.08;100566.57;2323654;76;50700;-75
2022/10/25 03:19:03;;;;;;;;;;;;;;;19.00;72.16;100567.91;2323889;76;51474;-75
2022/10/25 03:22:04;;;;;;;;;;;;;;;19.00;72.16;100567.91;2322226;76;51475;-75
2022/10/25 03:25:06;;;;;;;;;;;;;;;19.00;72.10;100573.79;2293145;76;49528;-76
2022/10/25 03:28:08;;;;;;;;;;;;;;;19.01;71.98;100570.08;2322001;75;51565;-74
2022/10/25 03:31:10;;;;;;;;;;;;;;;19.05;72.01;100579.42;2288754;76;50638;-73
2022/10/25 03:34:11;;;;;;;;;;;;;;;19.02;72.03;100573.92;2321938;76;50292;-73
2022/10/25 03:37:13;;;;;;;;;;;;;;;19.01;72.06;100575.44;2311623;76;50066;-74
2022/10/25 03:40:15;;;;;;;;;;;;;;;18.98;72.21;100592.73;2350590;75;51590;-74
2022/10/25 03:43:16;;;;;;;;;;;;;;;19.02;72.05;100585.16;2324013;76;51627;-75
2022/10/25 03:46:18;;;;;;;;;;;;;;;19.02;72.09;100587.84;2350609;74;51480;-76
2022/10/25 03:49:19;;;;;;;;;;;;;;;19.03;72.00;100589.50;2324286;75;52481;-76
2022/10/25 03:52:21;;;;;;;;;;;;;;;19.04;72.03;100587.16;2350738;74;50212;-77
2022/10/25 03:55:22;;;;;;;;;;;;;;;19.01;72.00;100591.05;2323891;75;50330;-76
2022/10/25 03:58:24;;;;;;;;;;;;;;;19.00;72.05;100584.52;2324180;76;50347;-76
2022/10/25 04:01:26;;;;;;;;;;;;;;;19.02;71.96;100595.89;2322337;75;50048;-76
2022/10/25 04:04:27;;;;;;;;;;;;;;;19.02;72.05;100600.73;2330027;75;51500;-75
2022/10/25 04:07:29;;;;;;;;;;;;;;;19.00;71.95;100600.09;2310973;75;51525;-76
2022/10/25 04:10:30;;;;;;;;;;;;;;;19.00;72.05;100601.95;2310962;75;51587;-75
2022/10/25 04:13:32;;;;;;;;;;;;;;;18.99;72.02;100605.14;2273027;78;50965;-75
2022/10/25 04:16:33;;;;;;;;;;;;;;;18.99;72.08;100616.38;2310955;75;52561;-75
2022/10/25 04:19:35;;;;;;;;;;;;;;;18.99;72.01;100611.02;2310930;75;50244;-75
2022/10/25 04:22:37;;;;;;;;;;;;;;;18.99;71.90;100611.84;2284947;76;50726;-76
2022/10/25 04:25:38;;;;;;;;;;;;;;;18.97;71.85;100619.23;2284354;77;50167;-75
2022/10/25 04:28:40;;;;;;;;;;;;;;;18.99;71.94;100627.11;2310881;75;50446;-75
2022/10/25 04:31:41;;;;;;;;;;;;;;;19.02;71.88;100613.32;2294047;76;50706;-75
2022/10/25 04:34:43;;;;;;;;;;;;;;;18.99;71.85;100616.38;2303669;76;51533;-76
2022/10/25 04:37:45;;;;;;;;;;;;;;;19.00;71.84;100615.36;2272183;76;50956;-75
2022/10/25 04:40:48;;;;;;;;;;;;;;;18.99;71.83;100614.53;2297299;76;51554;-75
2022/10/25 04:43:50;;;;;;;;;;;;;;;18.98;71.88;100610.16;2322115;76;51574;-76
2022/10/25 04:46:51;;;;;;;;;;;;;;;18.99;71.93;100609.16;2311549;76;52741;-76
2022/10/25 04:49:53;;;;;;;;;;;;;;;18.97;71.87;100604.49;2323583;75;50263;-76
2022/10/25 04:52:55;;;;;;;;;;;;;;;18.97;71.93;100603.67;2350540;75;50740;-75
2022/10/25 04:55:57;;;;;;;;;;;;;;;18.97;71.93;100607.69;2350652;74;51517;-75
2022/10/25 04:58:58;;;;;;;;;;;;;;;18.98;71.86;100611.50;2323995;76;50362;-76
2022/10/25 05:02:00;;;;;;;;;;;;;;;18.98;71.88;100606.66;2311466;76;51357;-75
2022/10/25 05:05:02;;;;;;;;;;;;;;;19.00;71.91;100609.99;2305982;76;51528;-75
2022/10/25 05:08:03;;;;;;;;;;;;;;;19.01;71.99;100608.96;2323950;76;50169;-75
2022/10/25 05:11:05;;;;;;;;;;;;;;;19.01;71.83;100615.18;2350376;75;51562;-76
2022/10/25 05:14:06;;;;;;;;;;;;;;;19.02;72.11;100620.03;2300640;76;50982;-76
2022/10/25 05:17:08;;;;;;;;;;;;;;;19.01;71.86;100616.52;2350535;74;51551;-76
2022/10/25 05:20:10;;;;;;;;;;;;;;;19.02;71.99;100625.39;2323985;76;51473;-75
2022/10/25 05:23:11;;;;;;;;;;;;;;;19.02;72.05;100620.85;2350434;75;51406;-76
2022/10/25 05:26:14;;;;;;;;;;;;;;;18.99;72.21;100615.88;2300592;76;50101;-77
2022/10/25 05:29:15;;;;;;;;;;;;;;;19.03;71.97;100620.34;2350689;74;52230;-77
2022/10/25 05:32:17;;;;;;;;;;;;;;;19.05;72.04;100623.67;2323841;76;50340;-75
2022/10/25 05:35:19;;;;;;;;;;;;;;;19.03;72.34;100621.68;2319224;74;50721;-76
2022/10/25 05:38:20;;;;;;;;;;;;;;;19.04;72.29;100624.19;2261402;78;50091;-75
2022/10/25 05:41:22;;;;;;;;;;;;;;;19.03;72.18;100627.05;2284896;76;51340;-75
2022/10/25 05:44:23;;;;;;;;;;;;;;;19.01;72.21;100623.22;2290596;76;50737;-77
2022/10/25 05:47:25;;;;;;;;;;;;;;;19.04;72.05;100631.41;2299289;76;50407;-75
2022/10/25 05:50:27;;;;;;;;;;;;;;;19.03;72.27;100629.72;2299268;76;51820;-74
2022/10/25 05:53:28;;;;;;;;;;;;;;;19.03;72.72;100637.77;2299528;76;50738;-74
2022/10/25 05:56:30;;;;;;;;;;;;;;;19.02;72.64;100643.65;2299196;76;51554;-75
2022/10/25 05:59:31;;;;;;;;;;;;;;;19.03;72.62;100649.32;2321638;75;50736;-75
2022/10/25 06:02:34;;;;;;;;;;;;;;;19.04;72.96;100655.54;2277034;76;50972;-77
2022/10/25 06:05:35;;;;;;;;;;;;;;;19.06;73.09;100658.84;2309715;76;50227;-75
2022/10/25 06:08:37;;;;;;;;;;;;;;;19.07;73.15;100661.87;2322980;76;50247;-76
2022/10/25 06:11:40;;;;;;;;;;;;;;;19.05;73.29;100671.43;2323967;76;50442;-76
2022/10/25 06:14:41;;;;;;;;;;;;;;;19.04;72.90;100666.27;2323976;75;50926;-76
2022/10/25 06:17:43;;;;;;;;;;;;;;;19.07;72.74;100672.59;2323230;76;51509;-76
2022/10/25 06:20:44;;;;;;;;;;;;;;;19.07;72.68;100675.28;2322292;76;50352;-74
2022/10/25 06:23:46;;;;;;;;;;;;;;;19.06;72.65;100681.16;2297421;76;50350;-75
2022/10/25 06:26:47;;;;;;;;;;;;;;;19.07;72.57;100680.13;2297387;76;51015;-75
2022/10/25 06:29:49;;;;;;;;;;;;;;;19.07;72.62;100681.47;2297638;76;50322;-75
2022/10/25 06:32:51;;;;;;;;;;;;;;;19.08;72.51;100680.95;2304674;76;52168;-75
2022/10/25 06:35:56;;;;;;;;;;;;;;;19.06;72.52;100678.47;2299528;76;50739;-76
2022/10/25 06:38:57;;;;;;;;;;;;;;;19.06;72.52;100690.55;2350512;74;49678;-75
2022/10/25 06:41:59;;;;;;;;;;;;;;;19.07;72.52;100688.69;2301878;76;50680;-76
2022/10/25 06:45:00;;;;;;;;;;;;;;;19.07;72.45;100688.69;2323717;76;51521;-76
2022/10/25 06:48:02;;;;;;;;;;;;;;;19.07;72.33;100697.56;2323559;75;51543;-76
2022/10/25 06:51:04;;;;;;;;;;;;;;;19.08;72.25;100699.21;2323665;75;50981;-76
2022/10/25 06:54:08;;;;;;;;;;;;;;;19.10;72.23;100708.42;2350380;74;51573;-76
2022/10/25 06:57:09;;;;;;;;;;;;;;;19.07;72.24;100706.95;2350620;75;22222;-76
2022/10/25 07:00:11;;;;;;;;;;;;;;;19.09;72.10;100716.16;2350776;74;50370;-75
2022/10/25 07:03:13;;;;;;;;;;;;;;;19.10;72.26;100721.84;2310353;76;49656;-76
2022/10/25 07:06:15;;;;;;;;;;;;;;;19.11;72.04;100720.80;2324033;76;50716;-76
2022/10/25 07:09:17;;;;;;;;;;;;;;;19.09;72.07;100718.84;2324068;76;51514;-76
2022/10/25 07:12:18;;;;;;;;;;;;;;;19.10;71.93;100728.54;2341890;74;51588;-75
2022/10/25 07:15:22;;;;;;;;;;;;;;;19.06;71.99;100733.45;2307317;76;49591;-75
2022/10/25 07:18:23;;;;;;;;;;;;;;;19.10;71.97;100731.22;2350417;75;22379;-76
2022/10/25 07:21:25;;;;;;;;;;;;;;;19.11;72.00;100744.46;2299666;76;52683;-76
2022/10/25 07:24:26;;;;;;;;;;;;;;;19.08;71.92;100740.78;2323529;76;51499;-75
2022/10/25 07:27:29;;;;;;;;;;;;;;;19.10;71.93;100739.27;2299655;76;52502;-75
2022/10/25 07:30:31;;;;;;;;;;;;;;;19.08;72.06;100735.42;2323700;76;51643;-74
2022/10/25 07:33:32;;;;;;;;;;;;;;;19.09;72.10;100741.64;2299172;76;52534;-75
2022/10/25 07:36:34;;;;;;;;;;;;;;;19.07;72.10;100741.81;2323705;76;50216;-75
2022/10/25 07:39:36;;;;;;;;;;;;;;;19.08;71.87;100741.30;2274019;76;49607;-74
2022/10/25 07:42:37;;;;;;;;;;;;;;;19.04;71.88;100749.41;2300579;76;50406;-74
2022/10/25 07:45:39;;;;;;;;;;;;;;;19.03;72.06;100755.77;2297393;76;50402;-75
2022/10/25 07:48:40;;;;;;;;;;;;;;;19.02;72.00;100759.47;2321820;76;50724;-75
2022/10/25 07:51:42;;;;;;;;;;;;;;;19.04;72.15;100754.25;2297159;76;51096;-73
2022/10/25 07:54:43;;;;;;;;;;;;;;;19.05;71.96;100760.44;2313869;74;50752;-75
2022/10/25 07:57:45;;;;;;;;;;;;;;;19.10;71.80;100757.53;2284904;78;52284;-75
2022/10/25 08:00:47;;;;;;;;;;;;;;;19.14;71.73;100756.16;2310969;76;51513;-72
2022/10/25 08:03:48;;;;;;;;;;;;;;;19.10;71.75;100758.05;2267694;76;49585;-74
2022/10/25 08:06:50;;;;;;;;;;;;;;;19.08;72.04;100754.19;2323250;76;51574;-74
2022/10/25 08:09:52;;;;;;;;;;;;;;;19.10;72.01;100751.34;2321878;76;51510;-74
2022/10/25 08:12:54;;;;;;;;;;;;;;;19.06;71.80;100756.73;2321988;76;50408;-74
2022/10/25 08:15:55;;;;;;;;;;;;;;;19.05;71.98;100759.09;2271180;76;50994;-73
2022/10/25 08:18:57;;;;;;;;;;;;;;;19.06;71.81;100762.09;2311309;76;51399;-76
2022/10/25 08:21:59;;;;;;;;;;;;;;;19.04;71.80;100762.81;2324663;76;50776;-74
2022/10/25 08:25:01;;;;;;;;;;;;;;;19.03;71.97;100767.31;2324562;76;51196;-74
2022/10/25 08:28:03;;;;;;;;;;;;;;;19.01;71.79;100765.83;2285117;76;50153;-74
2022/10/25 08:31:04;;;;;;;;;;;;;;;19.02;71.55;100772.88;2310644;76;51527;-76
2022/10/25 08:34:06;;;;;;;;;;;;;;;19.03;71.70;100769.17;2311041;76;50631;-76
2022/10/25 08:37:09;;;;;;;;;;;;;;;19.01;71.50;100768.03;2327752;75;51500;-74
2022/10/25 08:40:15;;;;;;;;;;;;;;;19.01;71.58;100773.88;2299691;76;52740;-75
2022/10/25 08:43:18;;;;;;;;;;;;;;;19.02;71.56;100769.69;2323616;76;51533;-74
2022/10/25 08:46:21;;;;;;;;;;;;;;;19.02;71.51;100774.22;2324006;75;51476;-75
2022/10/25 08:49:30;;;;;;;;;;;;;;;19.01;71.47;100784.61;2314416;76;50785;-74
2022/10/25 08:52:34;;;;;;;;;;;;;;;19.01;72.00;100783.27;2323801;76;50824;-75
2022/10/25 08:55:35;;;;;;;;;;;;;;;19.07;71.38;100784.72;2297439;76;50154;-74
2022/10/25 08:58:39;;;;;;;;;;;;;;;19.03;71.38;100785.27;2297577;76;51428;-74
2022/10/25 09:01:42;;;;;;;;;;;;;;;19.04;71.53;100780.24;2321847;76;50412;-74
2022/10/25 09:04:43;;;;;;;;;;;;;;;19.01;71.20;100784.12;2319921;76;50429;-74
2022/10/25 09:07:50;;;;;;;;;;;;;;;19.02;71.37;100785.77;2323912;76;50747;-74
2022/10/25 09:10:53;;;;;;;;;;;;;;;18.99;71.41;100783.47;2322316;76;51577;-75
2022/10/25 09:13:56;;;;;;;;;;;;;;;19.00;71.22;100785.63;2318475;76;52526;-75
2022/10/25 09:17:05;;;;;;;;;;;;;;;19.01;71.61;100791.31;2321742;76;51592;-74
2022/10/25 09:20:11;;;;;;;;;;;;;;;18.98;71.12;100786.31;2299899;76;52568;-75
2022/10/25 09:23:15;;;;;;;;;;;;;;;19.01;71.23;100793.51;2291377;76;50792;-74
2022/10/25 09:26:18;;;;;;;;;;;;;;;19.01;71.06;100792.17;2321457;76;50781;-74
2022/10/25 09:29:23;;;;;;;;;;;;;;;19.03;71.24;100794.65;2309019;76;51826;-74
2022/10/25 09:32:43;;;;;;;;;;;;;;;19.04;71.34;100799.84;2297288;76;49820;-74
2022/10/25 09:35:49;;;;;;;;;;;;;;;19.01;71.13;100810.08;2321378;76;50747;-74
2022/10/25 09:38:55;;;;;;;;;;;;;;;18.99;71.32;100804.09;2321128;76;51512;-74
2022/10/25 09:41:57;;;;;;;;;;;;;;;19.01;71.16;100811.42;2321455;76;51556;-75
2022/10/25 09:45:00;;;;;;;;;;;;;;;18.99;71.18;100808.11;2297034;76;50971;-75
2022/10/25 09:48:03;;;;;;;;;;;;;;;19.00;71.57;100807.91;2321678;76;51513;-75
2022/10/25 09:51:13;;;;;;;;;;;;;;;18.98;71.13;100807.77;2317947;76;51645;-75
2022/10/25 09:54:16;;;;;;;;;;;;;;;19.01;71.21;100807.40;2323568;76;51502;-75
2022/10/25 09:57:17;;;;;;;;;;;;;;;19.00;71.29;100813.27;2299090;76;51290;-74
2022/10/25 10:00:19;;;;;;;;;;;;;;;19.00;71.32;100815.12;2312864;75;50714;-75
2022/10/25 10:03:20;;;;;;;;;;;;;;;19.03;71.35;100817.44;2284536;78;51498;-73
2022/10/25 10:06:28;;;;;;;;;;;;;;;19.02;71.25;100826.52;2317154;76;51510;-74
2022/10/25 10:09:30;;;;;;;;;;;;;;;19.03;70.99;100822.80;2311191;76;51316;-74
2022/10/25 10:12:33;;;;;;;;;;;;;;;19.01;70.97;100831.05;2323658;76;51529;-74
2022/10/25 10:15:38;;;;;;;;;;;;;;;18.99;71.29;100833.08;2324326;75;51628;-75
2022/10/25 10:18:40;;;;;;;;;;;;;;;19.03;71.45;100833.02;2324702;74;50341;-74
2022/10/25 10:21:43;;;;;;;;;;;;;;;19.03;71.20;100834.88;2297613;76;51394;-74
2022/10/25 10:24:44;;;;;;;;;;;;;;;19.04;71.23;100839.24;2321045;76;50439;-74
2022/10/25 10:27:46;;;;;;;;;;;;;;;19.00;71.12;100843.29;2297308;76;51370;-74
2022/10/25 10:30:54;;;;;;;;;;;;;;;19.00;71.07;100841.95;2321623;76;51457;-73
2022/10/25 10:33:56;;;;;;;;;;;;;;;19.03;71.59;100845.60;2295385;76;51265;-74
2022/10/25 10:37:05;;;;;;;;;;;;;;;19.03;71.06;100846.43;2310977;76;51518;-75
2022/10/25 10:40:08;;;;;;;;;;;;;;;19.01;71.05;100834.22;2323346;75;50297;-73
2022/10/25 10:43:28;;;;;;;;;;;;;;;18.99;70.92;100840.30;2323517;76;50471;-73
2022/10/25 10:46:29;;;;;;;;;;;;;;;19.03;70.89;100841.06;2309859;76;49593;-74
2022/10/25 10:49:36;;;;;;;;;;;;;;;19.04;70.90;100842.75;2323223;76;50348;-73
2022/10/25 10:52:39;;;;;;;;;;;;;;;19.07;70.92;100846.92;2323982;75;50274;-72
2022/10/25 10:55:45;;;;;;;;;;;;;;;19.04;71.18;100846.77;2323980;76;50810;-73
2022/10/25 10:58:50;;;;;;;;;;;;;;;19.05;71.15;100843.58;2338051;75;52657;-72
2022/10/25 11:01:51;;;;;;;;;;;;;;;19.02;71.00;100855.50;2316651;76;50367;-73
2022/10/25 11:04:54;;;;;;;;;;;;;;;19.04;71.18;100856.67;2322998;76;50315;-75
2022/10/25 11:08:09;;;;;;;;;;;;;;;19.06;71.03;100850.59;2320931;75;51467;-74
2022/10/25 11:11:15;;;;;;;;;;;;;;;19.09;70.88;100855.62;2297316;76;52515;-74
2022/10/25 11:14:18;;;;;;;;;;;;;;;19.09;70.83;100845.72;2308675;76;50420;-73
2022/10/25 11:17:24;;;;;;;;;;;;;;;19.14;70.68;100843.84;2323934;76;50552;-74
2022/10/25 11:20:33;;;;;;;;;;;;;;;19.14;70.54;100842.50;2323683;76;50760;-75
2022/10/25 11:23:53;;;;;;;;;;;;;;;19.10;70.57;100857.28;2298791;76;49971;-73
2022/10/25 11:27:03;;;;;;;;;;;;;;;19.12;70.81;100852.06;2323971;76;51467;-74
2022/10/25 11:30:09;;;;;;;;;;;;;;;19.09;70.70;100846.23;2323740;76;50441;-74
2022/10/25 11:33:20;;;;;;;;;;;;;;;19.11;70.78;100842.36;2322674;76;51506;-74
2022/10/25 11:36:32;;;;;;;;;;;;;;;19.21;70.52;100841.25;2292766;76;51049;-73
2022/10/25 11:39:52;;;;;;;;;;;;;;;19.20;70.28;100845.78;2322395;74;50449;-73
2022/10/25 11:43:07;;;;;;;;;;;;;;;19.21;70.39;100846.09;2321593;75;51583;-74
2022/10/25 11:46:17;;;;;;;;;;;;;;;19.21;70.33;100838.56;2321433;75;50456;-73
2022/10/25 11:49:37;;;;;;;;;;;;;;;19.21;70.41;100835.37;2297158;76;52636;-74
2022/10/25 11:52:40;;;;;;;;;;;;;;;19.21;70.38;100843.41;2285908;76;51513;-74
2022/10/25 11:55:45;;;;;;;;;;;;;;;19.22;70.41;100854.49;2284791;78;50524;-74
2022/10/25 11:59:04;;;;;;;;;;;;;;;19.20;70.55;100854.34;2284981;77;50458;-74
2022/10/25 12:02:19;;;;;;;;;;;;;;;19.15;70.54;100849.52;2287612;76;49688;-74
2022/10/25 12:05:37;;;;;;;;;;;;;;;19.17;70.43;100844.81;2323723;75;22480;-74
2022/10/25 12:08:49;;;;;;;;;;;;;;;19.15;70.48;100846.33;2321018;75;51607;-75
2022/10/25 12:11:55;;;;;;;;;;;;;;;19.14;70.58;100855.91;2322638;76;50419;-75
2022/10/25 12:14:57;;;;;;;;;;;;;;;19.11;70.61;100866.98;2308212;76;51874;-75
2022/10/25 12:17:59;;;;;;;;;;;;;;;19.10;70.55;100863.98;2335950;76;50115;-75
2022/10/25 12:21:00;;;;;;;;;;;;;;;19.14;70.62;100861.28;2301454;75;50799;-74
2022/10/25 12:24:04;;;;;;;;;;;;;;;19.15;70.72;100861.59;2284530;76;51516;-74
2022/10/25 12:27:05;;;;;;;;;;;;;;;19.08;70.74;100872.20;2275335;77;49840;-75
2022/10/25 12:30:09;;;;;;;;;;;;;;;19.07;70.73;100863.02;2273272;77;51516;-75
2022/10/25 12:33:15;;;;;;;;;;;;;;;19.07;70.95;100869.20;2284600;76;50413;-75
2022/10/25 12:36:21;;;;;;;;;;;;;;;19.08;70.72;100870.86;2284718;76;53425;-75
2022/10/25 12:39:27;;;;;;;;;;;;;;;19.11;70.91;100872.34;2299444;76;51122;-74
2022/10/25 12:42:42;;;;;;;;;;;;;;;19.13;70.74;100885.07;2311478;76;49681;-75
2022/10/25 12:45:45;;;;;;;;;;;;;;;19.12;70.55;100870.84;2323857;76;50378;-74
2022/10/25 12:48:55;;;;;;;;;;;;;;;19.10;70.60;100882.76;2323598;75;51353;-75
2022/10/25 12:52:07;;;;;;;;;;;;;;;19.07;70.63;100876.42;2311650;76;51880;-75
2022/10/25 12:55:27;;;;;;;;;;;;;;;19.04;70.65;100873.59;2323671;75;50272;-74
2022/10/25 12:58:33;;;;;;;;;;;;;;;19.03;70.74;100871.91;2323903;75;50344;-74
2022/10/25 13:01:39;;;;;;;;;;;;;;;19.02;70.73;100882.83;2323830;76;51868;-74
2022/10/25 13:04:59;;;;;;;;;;;;;;;19.02;70.78;100880.98;2311293;76;53064;-74
2022/10/25 13:08:01;;;;;;;;;;;;;;;19.03;70.98;100880.47;2322743;75;51586;-75
2022/10/25 13:11:04;;;;;;;;;;;;;;;19.01;70.75;100889.19;2323817;76;50424;-74
2022/10/25 13:14:07;;;;;;;;;;;;;;;19.03;71.18;100887.17;2323656;76;51565;-75
2022/10/25 13:17:19;;;;;;;;;;;;;;;19.03;70.69;100887.17;2311982;75;52648;-74
2022/10/25 13:20:22;;;;;;;;;;;;;;;19.03;70.69;100884.48;2311382;76;51067;-75
2022/10/25 13:23:56;;;;;;;;;;;;;;;19.03;70.68;100892.53;2323541;75;51474;-75
2022/10/25 13:27:11;;;;;;;;;;;;;;;19.03;70.90;100891.19;2323118;76;22720;-74
2022/10/25 13:30:22;;;;;;;;;;;;;;;19.05;70.87;100894.53;2311421;76;53115;-75
2022/10/25 13:33:26;;;;;;;;;;;;;;;19.05;70.92;100892.68;2323771;76;50415;-75
2022/10/25 13:36:48;;;;;;;;;;;;;;;19.06;71.07;100898.39;2323916;75;50536;-75
2022/10/25 13:39:51;;;;;;;;;;;;;;;19.07;71.19;100900.56;2321241;76;50432;-75
2022/10/25 13:43:05;;;;;;;;;;;;;;;19.06;70.90;100903.75;2311432;76;51898;-74
2022/10/25 13:46:08;;;;;;;;;;;;;;;19.06;70.94;100904.23;2323612;76;51562;-74
2022/10/25 13:49:28;;;;;;;;;;;;;;;19.05;70.98;100909.28;2323868;75;50437;-75
2022/10/25 13:52:33;;;;;;;;;;;;;;;19.03;70.77;100913.98;2323959;75;50273;-75
2022/10/25 13:55:36;;;;;;;;;;;;;;;19.04;70.97;100922.38;2311285;76;50988;-75
2022/10/25 13:58:45;;;;;;;;;;;;;;;19.06;71.06;100919.84;2324092;76;50759;-75
2022/10/25 14:01:48;;;;;;;;;;;;;;;19.05;71.14;100924.03;2324390;76;50738;-75
2022/10/25 14:04:50;;;;;;;;;;;;;;;19.06;71.11;100925.20;2324576;76;50637;-75
2022/10/25 14:07:51;;;;;;;;;;;;;;;19.07;70.97;100925.52;2305918;76;50080;-74
2022/10/25 14:10:53;;;;;;;;;;;;;;;19.06;70.71;100927.03;2324596;75;52507;-74
2022/10/25 14:13:59;;;;;;;;;;;;;;;19.06;70.74;100928.37;2324101;76;51519;-75
2022/10/25 14:17:08;;;;;;;;;;;;;;;19.07;71.14;100935.42;2324283;76;51510;-74
2022/10/25 14:20:20;;;;;;;;;;;;;;;19.05;70.94;100934.25;2300190;76;49451;-74
2022/10/25 14:23:22;;;;;;;;;;;;;;;19.05;70.96;100941.47;2324109;75;50757;-74
2022/10/25 14:26:24;;;;;;;;;;;;;;;19.06;71.03;100939.10;2324351;76;50840;-74
2022/10/25 14:29:26;;;;;;;;;;;;;;;19.06;70.81;100936.42;2317700;75;50814;-74
2022/10/25 14:32:28;;;;;;;;;;;;;;;19.05;70.83;100933.42;2331094;74;51288;-74
2022/10/25 14:35:36;;;;;;;;;;;;;;;19.06;70.83;100945.80;2324256;76;50363;-75
2022/10/25 14:38:40;;;;;;;;;;;;;;;19.07;70.70;100937.59;2324362;76;51582;-74
2022/10/25 14:41:42;;;;;;;;;;;;;;;19.08;70.60;100937.91;2323101;76;51449;-74
2022/10/25 14:44:44;;;;;;;;;;;;;;;19.07;70.96;100931.41;2274806;76;52775;-74
2022/10/25 14:47:46;;;;;;;;;;;;;;;19.08;70.65;100939.77;2300295;76;51561;-74
2022/10/25 14:50:47;;;;;;;;;;;;;;;19.10;70.68;100948.47;2300047;76;50348;-75
2022/10/25 14:53:50;;;;;;;;;;;;;;;19.10;70.50;100945.79;2324253;75;50326;-74
2022/10/25 14:56:56;;;;;;;;;;;;;;;19.09;70.51;100942.28;2297934;76;51445;-74
2022/10/25 15:00:00;;;;;;;;;;;;;;;19.10;70.53;100945.79;2324257;76;51680;-74
2022/10/25 15:03:01;;;;;;;;;;;;;;;19.08;70.37;100946.47;2324516;76;51579;-74
2022/10/25 15:06:04;;;;;;;;;;;;;;;19.08;70.40;100937.08;2351367;74;50773;-74
2022/10/25 15:09:05;;;;;;;;;;;;;;;19.08;70.55;100941.10;2299371;76;49283;-75
2022/10/25 15:12:09;;;;;;;;;;;;;;;19.09;70.45;100943.62;2350982;74;50342;-75
2022/10/25 15:15:24;;;;;;;;;;;;;;;19.08;70.56;100947.81;2324632;75;50450;-75
2022/10/25 15:18:30;;;;;;;;;;;;;;;19.07;70.33;100946.16;2325258;75;51499;-75
2022/10/25 15:21:46;;;;;;;;;;;;;;;19.05;70.49;100942.81;2312241;76;51040;-75
2022/10/25 15:24:47;;;;;;;;;;;;;;;19.07;70.53;100942.95;2324571;75;50400;-75
2022/10/25 15:27:53;;;;;;;;;;;;;;;19.01;70.35;100950.39;2351206;75;50229;-75
2022/10/25 15:31:02;;;;;;;;;;;;;;;19.03;70.49;100951.53;2324665;76;51642;-75
2022/10/25 15:34:04;;;;;;;;;;;;;;;18.99;70.23;100946.22;2300795;76;51463;-75
2022/10/25 15:37:06;;;;;;;;;;;;;;;19.01;70.36;100947.70;2323629;76;51470;-75
2022/10/25 15:40:09;;;;;;;;;;;;;;;18.96;70.28;100950.09;2297581;76;51636;-75
2022/10/25 15:43:10;;;;;;;;;;;;;;;18.98;70.41;100948.55;2321407;76;51501;-75
2022/10/25 15:46:20;;;;;;;;;;;;;;;18.94;70.41;100945.41;2297221;76;51033;-75